sensor_id;sensor_type;location;lat;lon;timestamp;temperature;humidity
16102;DHT22;56411;52.964;10.540;2023-03-12T00:00:49;0.30;99.90
16102;DHT22;56411;52.964;10.540;2023-03-12T00:03:16;0.30;99.90
16102;DHT22;56411;52.964;10.540;2023-03-12T00:05:44;0.20;99.90
16102;DHT22;56411;52.964;10.540;2023-03-12T00:08:12;0.30;99.90
16102;DHT22;56411;52.964;10.540;2023-03-12T00:10:40;0.20;99.90
16102;DHT22;56411;52.964;10.540;2023-03-12T00:13:08;0.20;99.90
16102;DHT22;56411;52.964;10.540;2023-03-12T00:15:36;0.20;99.90
16102;DHT22;56411;52.964;10.540;2023-03-12T00:18:03;0.00;99.90
16102;DHT22;56411;52.964;10.540;2023-03-12T00:20:31;0.00;99.90
16102;DHT22;56411;52.964;10.540;2023-03-12T00:22:58;0.00;99.90
16102;DHT22;56411;52.964;10.540;2023-03-12T00:25:25;0.00;99.90
16102;DHT22;56411;52.964;10.540;2023-03-12T00:27:53;0.00;99.90
16102;DHT22;56411;52.964;10.540;2023-03-12T00:30:21;0.00;99.90
16102;DHT22;56411;52.964;10.540;2023-03-12T00:32:48;0.00;99.90
16102;DHT22;56411;52.964;10.540;2023-03-12T00:35:15;-0.10;99.90
16102;DHT22;56411;52.964;10.540;2023-03-12T00:37:42;-0.10;99.90
16102;DHT22;56411;52.964;10.540;2023-03-12T00:40:10;-0.20;99.90
16102;DHT22;56411;52.964;10.540;2023-03-12T00:42:38;-0.20;99.90
16102;DHT22;56411;52.964;10.540;2023-03-12T00:45:07;-0.10;99.90
16102;DHT22;56411;52.964;10.540;2023-03-12T00:47:34;-0.20;99.90
16102;DHT22;56411;52.964;10.540;2023-03-12T00:50:02;-0.20;99.90
16102;DHT22;56411;52.964;10.540;2023-03-12T00:52:29;-0.20;99.90
16102;DHT22;56411;52.964;10.540;2023-03-12T00:54:56;-0.20;99.90
16102;DHT22;56411;52.964;10.540;2023-03-12T00:57:23;-0.20;99.90
16102;DHT22;56411;52.964;10.540;2023-03-12T00:59:51;-0.10;99.90
16102;DHT22;56411;52.964;10.540;2023-03-12T01:02:20;-0.20;99.90
16102;DHT22;56411;52.964;10.540;2023-03-12T01:04:47;-0.20;99.90
16102;DHT22;56411;52.964;10.540;2023-03-12T01:07:14;-0.10;99.90
16102;DHT22;56411;52.964;10.540;2023-03-12T01:09:42;-0.10;99.90
16102;DHT22;56411;52.964;10.540;2023-03-12T01:12:09;-0.10;99.90
16102;DHT22;56411;52.964;10.540;2023-03-12T01:14:36;0.00;99.90
16102;DHT22;56411;52.964;10.540;2023-03-12T01:17:03;0.00;99.90
16102;DHT22;56411;52.964;10.540;2023-03-12T01:19:31;0.00;99.90
16102;DHT22;56411;52.964;10.540;2023-03-12T01:21:58;0.00;99.90
16102;DHT22;56411;52.964;10.540;2023-03-12T01:24:25;0.10;99.90
16102;DHT22;56411;52.964;10.540;2023-03-12T01:26:52;0.10;99.90
16102;DHT22;56411;52.964;10.540;2023-03-12T01:29:21;0.10;99.90
16102;DHT22;56411;52.964;10.540;2023-03-12T01:31:48;0.10;99.90
16102;DHT22;56411;52.964;10.540;2023-03-12T01:34:16;0.10;99.90
16102;DHT22;56411;52.964;10.540;2023-03-12T01:36:45;0.10;99.90
16102;DHT22;56411;52.964;10.540;2023-03-12T01:39:13;0.00;99.90
16102;DHT22;56411;52.964;10.540;2023-03-12T01:41:40;-0.10;99.90
16102;DHT22;56411;52.964;10.540;2023-03-12T01:44:12;-0.10;99.90
16102;DHT22;56411;52.964;10.540;2023-03-12T01:46:42;-0.20;99.90
16102;DHT22;56411;52.964;10.540;2023-03-12T01:49:12;-0.20;99.90
16102;DHT22;56411;52.964;10.540;2023-03-12T01:51:41;-0.20;99.90
16102;DHT22;56411;52.964;10.540;2023-03-12T01:54:13;-0.30;99.90
16102;DHT22;56411;52.964;10.540;2023-03-12T01:56:41;-0.40;99.90
16102;DHT22;56411;52.964;10.540;2023-03-12T01:59:12;-0.40;99.90
16102;DHT22;56411;52.964;10.540;2023-03-12T02:01:41;-0.50;99.90
16102;DHT22;56411;52.964;10.540;2023-03-12T02:04:10;-0.60;99.90
16102;DHT22;56411;52.964;10.540;2023-03-12T02:06:42;-0.70;99.90
16102;DHT22;56411;52.964;10.540;2023-03-12T02:09:13;-0.80;99.90
16102;DHT22;56411;52.964;10.540;2023-03-12T02:11:40;-0.90;99.90
16102;DHT22;56411;52.964;10.540;2023-03-12T02:14:07;-1.10;99.90
16102;DHT22;56411;52.964;10.540;2023-03-12T02:16:34;-1.30;99.90
16102;DHT22;56411;52.964;10.540;2023-03-12T02:19:03;-1.40;99.90
16102;DHT22;56411;52.964;10.540;2023-03-12T02:21:34;-1.50;99.90
16102;DHT22;56411;52.964;10.540;2023-03-12T02:24:05;-1.80;99.90
16102;DHT22;56411;52.964;10.540;2023-03-12T02:26:37;-1.80;99.90
16102;DHT22;56411;52.964;10.540;2023-03-12T02:29:06;-1.90;99.90
16102;DHT22;56411;52.964;10.540;2023-03-12T02:31:38;-1.90;99.90
16102;DHT22;56411;52.964;10.540;2023-03-12T02:34:06;-2.00;99.90
16102;DHT22;56411;52.964;10.540;2023-03-12T02:36:33;-2.00;99.90
16102;DHT22;56411;52.964;10.540;2023-03-12T02:39:01;-2.00;99.90
16102;DHT22;56411;52.964;10.540;2023-03-12T02:41:30;-2.10;99.90
16102;DHT22;56411;52.964;10.540;2023-03-12T02:44:02;-2.10;99.90
16102;DHT22;56411;52.964;10.540;2023-03-12T02:46:33;-2.20;99.90
16102;DHT22;56411;52.964;10.540;2023-03-12T02:49:01;-2.20;99.90
16102;DHT22;56411;52.964;10.540;2023-03-12T02:51:28;-2.30;99.90
16102;DHT22;56411;52.964;10.540;2023-03-12T02:53:55;-2.30;99.90
16102;DHT22;56411;52.964;10.540;2023-03-12T02:56:22;-2.40;99.90
16102;DHT22;56411;52.964;10.540;2023-03-12T02:58:49;-2.40;99.90
16102;DHT22;56411;52.964;10.540;2023-03-12T03:01:18;-2.40;99.90
16102;DHT22;56411;52.964;10.540;2023-03-12T03:03:46;-2.40;99.90
16102;DHT22;56411;52.964;10.540;2023-03-12T03:06:14;-2.40;99.90
16102;DHT22;56411;52.964;10.540;2023-03-12T03:08:41;-2.40;99.90
16102;DHT22;56411;52.964;10.540;2023-03-12T03:11:08;-2.40;99.90
16102;DHT22;56411;52.964;10.540;2023-03-12T03:13:36;-2.40;99.90
16102;DHT22;56411;52.964;10.540;2023-03-12T03:16:04;-2.40;99.90
16102;DHT22;56411;52.964;10.540;2023-03-12T03:18:32;-2.40;99.90
16102;DHT22;56411;52.964;10.540;2023-03-12T03:21:01;-2.50;99.90
16102;DHT22;56411;52.964;10.540;2023-03-12T03:23:29;-2.50;99.90
16102;DHT22;56411;52.964;10.540;2023-03-12T03:25:56;-2.50;99.90
16102;DHT22;56411;52.964;10.540;2023-03-12T03:28:25;-2.60;99.90
16102;DHT22;56411;52.964;10.540;2023-03-12T03:30:53;-2.70;99.90
16102;DHT22;56411;52.964;10.540;2023-03-12T03:33:23;-2.60;99.90
16102;DHT22;56411;52.964;10.540;2023-03-12T03:35:51;-2.60;99.90
16102;DHT22;56411;52.964;10.540;2023-03-12T03:38:20;-2.60;99.90
16102;DHT22;56411;52.964;10.540;2023-03-12T03:40:47;-2.50;99.90
16102;DHT22;56411;52.964;10.540;2023-03-12T03:43:14;-2.40;99.90
16102;DHT22;56411;52.964;10.540;2023-03-12T03:45:41;-2.40;99.90
16102;DHT22;56411;52.964;10.540;2023-03-12T03:48:09;-2.40;99.90
16102;DHT22;56411;52.964;10.540;2023-03-12T03:50:36;-2.50;99.90
16102;DHT22;56411;52.964;10.540;2023-03-12T03:53:06;-2.60;99.90
16102;DHT22;56411;52.964;10.540;2023-03-12T03:55:35;-2.80;99.90
16102;DHT22;56411;52.964;10.540;2023-03-12T03:58:02;-2.80;99.90
16102;DHT22;56411;52.964;10.540;2023-03-12T04:00:30;-2.90;99.90
16102;DHT22;56411;52.964;10.540;2023-03-12T04:02:57;-3.00;99.90
16102;DHT22;56411;52.964;10.540;2023-03-12T04:05:24;-3.00;99.90
16102;DHT22;56411;52.964;10.540;2023-03-12T04:07:51;-3.10;99.90
16102;DHT22;56411;52.964;10.540;2023-03-12T04:10:21;-3.20;99.90
16102;DHT22;56411;52.964;10.540;2023-03-12T04:12:48;-3.10;99.90
16102;DHT22;56411;52.964;10.540;2023-03-12T04:15:16;-3.10;99.90
16102;DHT22;56411;52.964;10.540;2023-03-12T04:17:43;-3.10;99.90
16102;DHT22;56411;52.964;10.540;2023-03-12T04:20:11;-3.00;99.90
16102;DHT22;56411;52.964;10.540;2023-03-12T04:22:38;-3.00;99.90
16102;DHT22;56411;52.964;10.540;2023-03-12T04:25:06;-2.90;99.90
16102;DHT22;56411;52.964;10.540;2023-03-12T04:27:35;-2.90;99.90
16102;DHT22;56411;52.964;10.540;2023-03-12T04:30:03;-3.00;99.90
16102;DHT22;56411;52.964;10.540;2023-03-12T04:32:30;-3.10;99.90
16102;DHT22;56411;52.964;10.540;2023-03-12T04:34:57;-3.10;99.90
16102;DHT22;56411;52.964;10.540;2023-03-12T04:37:24;-3.10;99.90
16102;DHT22;56411;52.964;10.540;2023-03-12T04:39:54;-3.10;99.90
16102;DHT22;56411;52.964;10.540;2023-03-12T04:42:21;-3.20;99.90
16102;DHT22;56411;52.964;10.540;2023-03-12T04:44:50;-3.20;99.90
16102;DHT22;56411;52.964;10.540;2023-03-12T04:47:18;-3.20;99.90
16102;DHT22;56411;52.964;10.540;2023-03-12T04:49:45;-3.20;99.90
16102;DHT22;56411;52.964;10.540;2023-03-12T04:52:12;-3.20;99.90
16102;DHT22;56411;52.964;10.540;2023-03-12T04:54:39;-3.10;99.90
16102;DHT22;56411;52.964;10.540;2023-03-12T04:57:06;-3.10;99.90
16102;DHT22;56411;52.964;10.540;2023-03-12T04:59:33;-3.00;99.90
16102;DHT22;56411;52.964;10.540;2023-03-12T05:02:01;-3.00;99.90
16102;DHT22;56411;52.964;10.540;2023-03-12T05:04:28;-3.00;99.90
16102;DHT22;56411;52.964;10.540;2023-03-12T05:06:55;-2.90;99.90
16102;DHT22;56411;52.964;10.540;2023-03-12T05:09:22;-2.80;99.90
16102;DHT22;56411;52.964;10.540;2023-03-12T05:11:50;-2.90;99.90
16102;DHT22;56411;52.964;10.540;2023-03-12T05:14:17;-2.90;99.90
16102;DHT22;56411;52.964;10.540;2023-03-12T05:16:44;-2.90;99.90
16102;DHT22;56411;52.964;10.540;2023-03-12T05:19:12;-2.90;99.90
16102;DHT22;56411;52.964;10.540;2023-03-12T05:21:39;-2.90;99.90
16102;DHT22;56411;52.964;10.540;2023-03-12T05:24:07;-3.00;99.90
16102;DHT22;56411;52.964;10.540;2023-03-12T05:26:34;-3.00;99.90
16102;DHT22;56411;52.964;10.540;2023-03-12T05:29:02;-3.00;99.90
16102;DHT22;56411;52.964;10.540;2023-03-12T05:31:30;-3.00;99.90
16102;DHT22;56411;52.964;10.540;2023-03-12T05:34:00;-3.00;99.90
16102;DHT22;56411;52.964;10.540;2023-03-12T05:36:29;-2.90;99.90
16102;DHT22;56411;52.964;10.540;2023-03-12T05:38:56;-2.90;99.90
16102;DHT22;56411;52.964;10.540;2023-03-12T05:41:26;-2.90;99.90
16102;DHT22;56411;52.964;10.540;2023-03-12T05:43:55;-2.80;99.90
16102;DHT22;56411;52.964;10.540;2023-03-12T05:46:23;-2.70;99.90
16102;DHT22;56411;52.964;10.540;2023-03-12T05:48:50;-2.70;99.90
16102;DHT22;56411;52.964;10.540;2023-03-12T05:51:18;-2.70;99.90
16102;DHT22;56411;52.964;10.540;2023-03-12T05:53:46;-2.70;99.90
16102;DHT22;56411;52.964;10.540;2023-03-12T05:56:16;-2.70;99.90
16102;DHT22;56411;52.964;10.540;2023-03-12T05:58:43;-2.70;99.90
16102;DHT22;56411;52.964;10.540;2023-03-12T06:01:12;-2.60;99.90
16102;DHT22;56411;52.964;10.540;2023-03-12T06:03:39;-2.60;99.90
16102;DHT22;56411;52.964;10.540;2023-03-12T06:06:07;-2.60;99.90
16102;DHT22;56411;52.964;10.540;2023-03-12T06:08:35;-2.60;99.90
16102;DHT22;56411;52.964;10.540;2023-03-12T06:11:03;-2.70;99.90
16102;DHT22;56411;52.964;10.540;2023-03-12T06:13:31;-2.70;99.90
16102;DHT22;56411;52.964;10.540;2023-03-12T06:16:01;-2.70;99.90
16102;DHT22;56411;52.964;10.540;2023-03-12T06:18:30;-2.80;99.90
16102;DHT22;56411;52.964;10.540;2023-03-12T06:21:07;-2.80;99.90
16102;DHT22;56411;52.964;10.540;2023-03-12T06:23:35;-2.80;99.90
16102;DHT22;56411;52.964;10.540;2023-03-12T06:26:05;-2.80;99.90
16102;DHT22;56411;52.964;10.540;2023-03-12T06:28:33;-2.70;99.90
16102;DHT22;56411;52.964;10.540;2023-03-12T06:31:00;-2.70;99.90
16102;DHT22;56411;52.964;10.540;2023-03-12T06:33:27;-2.70;99.90
16102;DHT22;56411;52.964;10.540;2023-03-12T06:35:54;-2.60;99.90
16102;DHT22;56411;52.964;10.540;2023-03-12T06:38:22;-2.40;99.90
16102;DHT22;56411;52.964;10.540;2023-03-12T06:40:54;-2.30;99.90
16102;DHT22;56411;52.964;10.540;2023-03-12T06:43:23;-2.20;99.90
16102;DHT22;56411;52.964;10.540;2023-03-12T06:45:50;-2.00;99.90
16102;DHT22;56411;52.964;10.540;2023-03-12T06:48:17;-1.90;99.90
16102;DHT22;56411;52.964;10.540;2023-03-12T06:50:44;-1.80;99.90
16102;DHT22;56411;52.964;10.540;2023-03-12T06:53:11;-1.60;99.90
16102;DHT22;56411;52.964;10.540;2023-03-12T06:55:38;-1.50;99.90
16102;DHT22;56411;52.964;10.540;2023-03-12T06:58:05;-1.40;99.90
16102;DHT22;56411;52.964;10.540;2023-03-12T07:00:35;-1.40;99.90
16102;DHT22;56411;52.964;10.540;2023-03-12T07:03:02;-1.30;99.90
16102;DHT22;56411;52.964;10.540;2023-03-12T07:05:30;-1.30;99.90
16102;DHT22;56411;52.964;10.540;2023-03-12T07:07:57;-1.20;99.90
16102;DHT22;56411;52.964;10.540;2023-03-12T07:10:25;-1.20;99.90
16102;DHT22;56411;52.964;10.540;2023-03-12T07:12:54;-1.20;99.90
16102;DHT22;56411;52.964;10.540;2023-03-12T07:15:22;-1.10;99.90
16102;DHT22;56411;52.964;10.540;2023-03-12T07:17:50;-1.00;99.90
16102;DHT22;56411;52.964;10.540;2023-03-12T07:20:17;-0.90;99.90
16102;DHT22;56411;52.964;10.540;2023-03-12T07:22:45;-0.80;99.90
16102;DHT22;56411;52.964;10.540;2023-03-12T07:25:12;-0.60;99.90
16102;DHT22;56411;52.964;10.540;2023-03-12T07:27:39;-0.40;99.90
16102;DHT22;56411;52.964;10.540;2023-03-12T07:30:07;-0.40;99.90
16102;DHT22;56411;52.964;10.540;2023-03-12T07:32:34;-0.60;99.90
16102;DHT22;56411;52.964;10.540;2023-03-12T07:35:03;-0.60;99.90
16102;DHT22;56411;52.964;10.540;2023-03-12T07:37:30;-0.70;99.90
16102;DHT22;56411;52.964;10.540;2023-03-12T07:39:57;-0.70;99.90
16102;DHT22;56411;52.964;10.540;2023-03-12T07:42:24;-0.60;99.90
16102;DHT22;56411;52.964;10.540;2023-03-12T07:44:51;-0.40;99.90
16102;DHT22;56411;52.964;10.540;2023-03-12T07:47:18;-0.20;99.90
16102;DHT22;56411;52.964;10.540;2023-03-12T07:49:45;0.10;99.90
16102;DHT22;56411;52.964;10.540;2023-03-12T07:52:14;0.30;99.90
16102;DHT22;56411;52.964;10.540;2023-03-12T07:54:42;0.30;99.90
16102;DHT22;56411;52.964;10.540;2023-03-12T07:57:09;0.50;99.90
16102;DHT22;56411;52.964;10.540;2023-03-12T07:59:36;0.70;99.90
16102;DHT22;56411;52.964;10.540;2023-03-12T08:02:04;0.90;99.90
16102;DHT22;56411;52.964;10.540;2023-03-12T08:04:31;1.10;99.90
16102;DHT22;56411;52.964;10.540;2023-03-12T08:06:58;1.30;99.90
16102;DHT22;56411;52.964;10.540;2023-03-12T08:09:27;1.40;99.90
16102;DHT22;56411;52.964;10.540;2023-03-12T08:11:54;1.50;99.90
16102;DHT22;56411;52.964;10.540;2023-03-12T08:14:21;1.40;99.90
16102;DHT22;56411;52.964;10.540;2023-03-12T08:16:48;1.30;99.90
16102;DHT22;56411;52.964;10.540;2023-03-12T08:19:15;1.20;99.90
16102;DHT22;56411;52.964;10.540;2023-03-12T08:21:42;1.20;99.90
16102;DHT22;56411;52.964;10.540;2023-03-12T08:24:09;1.50;99.90
16102;DHT22;56411;52.964;10.540;2023-03-12T08:26:38;1.80;99.90
16102;DHT22;56411;52.964;10.540;2023-03-12T08:29:05;2.10;99.90
16102;DHT22;56411;52.964;10.540;2023-03-12T08:31:32;2.40;99.90
16102;DHT22;56411;52.964;10.540;2023-03-12T08:33:59;2.70;99.90
16102;DHT22;56411;52.964;10.540;2023-03-12T08:36:26;3.00;99.90
16102;DHT22;56411;52.964;10.540;2023-03-12T08:38:53;3.30;99.90
16102;DHT22;56411;52.964;10.540;2023-03-12T08:41:20;3.40;99.90
16102;DHT22;56411;52.964;10.540;2023-03-12T08:43:49;3.60;99.90
16102;DHT22;56411;52.964;10.540;2023-03-12T08:46:16;3.90;99.90
16102;DHT22;56411;52.964;10.540;2023-03-12T08:48:43;4.20;99.90
16102;DHT22;56411;52.964;10.540;2023-03-12T08:51:10;4.50;99.90
16102;DHT22;56411;52.964;10.540;2023-03-12T08:53:37;4.60;99.90
16102;DHT22;56411;52.964;10.540;2023-03-12T08:56:05;4.70;99.90
16102;DHT22;56411;52.964;10.540;2023-03-12T08:58:32;4.70;99.90
16102;DHT22;56411;52.964;10.540;2023-03-12T09:01:00;4.80;99.90
16102;DHT22;56411;52.964;10.540;2023-03-12T09:03:27;4.40;99.90
16102;DHT22;56411;52.964;10.540;2023-03-12T09:06:05;4.40;99.90
16102;DHT22;56411;52.964;10.540;2023-03-12T09:08:36;4.30;99.90
16102;DHT22;56411;52.964;10.540;2023-03-12T09:11:03;4.30;99.90
16102;DHT22;56411;52.964;10.540;2023-03-12T09:13:30;4.40;99.90
16102;DHT22;56411;52.964;10.540;2023-03-12T09:16:02;4.50;99.90
16102;DHT22;56411;52.964;10.540;2023-03-12T09:18:30;4.60;99.90
16102;DHT22;56411;52.964;10.540;2023-03-12T09:20:57;4.80;99.90
16102;DHT22;56411;52.964;10.540;2023-03-12T09:23:26;4.90;99.90
16102;DHT22;56411;52.964;10.540;2023-03-12T09:25:53;4.90;99.90
16102;DHT22;56411;52.964;10.540;2023-03-12T09:28:22;5.00;99.90
16102;DHT22;56411;52.964;10.540;2023-03-12T09:30:49;5.10;99.90
16102;DHT22;56411;52.964;10.540;2023-03-12T09:33:17;5.30;99.90
16102;DHT22;56411;52.964;10.540;2023-03-12T09:35:44;5.40;99.90
16102;DHT22;56411;52.964;10.540;2023-03-12T09:38:21;5.10;99.90
16102;DHT22;56411;52.964;10.540;2023-03-12T09:40:48;4.90;99.90
16102;DHT22;56411;52.964;10.540;2023-03-12T09:43:20;4.70;99.90
16102;DHT22;56411;52.964;10.540;2023-03-12T09:45:48;4.80;99.90
16102;DHT22;56411;52.964;10.540;2023-03-12T09:48:19;4.80;99.90
16102;DHT22;56411;52.964;10.540;2023-03-12T09:50:49;5.00;99.90
16102;DHT22;56411;52.964;10.540;2023-03-12T09:53:24;5.40;99.90
16102;DHT22;56411;52.964;10.540;2023-03-12T09:55:55;5.70;99.90
16102;DHT22;56411;52.964;10.540;2023-03-12T09:58:26;6.00;99.90
16102;DHT22;56411;52.964;10.540;2023-03-12T10:00:59;6.00;99.90
16102;DHT22;56411;52.964;10.540;2023-03-12T10:03:51;5.70;99.90
16102;DHT22;56411;52.964;10.540;2023-03-12T10:06:23;5.40;99.90
16102;DHT22;56411;52.964;10.540;2023-03-12T10:09:02;5.30;99.90
16102;DHT22;56411;52.964;10.540;2023-03-12T10:11:41;5.10;99.90
16102;DHT22;56411;52.964;10.540;2023-03-12T10:14:29;5.10;99.90
16102;DHT22;56411;52.964;10.540;2023-03-12T10:17:09;5.20;99.90
16102;DHT22;56411;52.964;10.540;2023-03-12T10:19:56;5.20;99.90
16102;DHT22;56411;52.964;10.540;2023-03-12T10:22:36;5.30;99.90
16102;DHT22;56411;52.964;10.540;2023-03-12T10:25:15;5.20;99.90
16102;DHT22;56411;52.964;10.540;2023-03-12T10:27:45;5.30;99.90
16102;DHT22;56411;52.964;10.540;2023-03-12T10:30:16;5.40;99.90
16102;DHT22;56411;52.964;10.540;2023-03-12T10:32:46;5.60;99.90
16102;DHT22;56411;52.964;10.540;2023-03-12T10:35:18;5.70;99.90
16102;DHT22;56411;52.964;10.540;2023-03-12T10:37:48;5.80;99.90
16102;DHT22;56411;52.964;10.540;2023-03-12T10:40:17;5.90;99.90
16102;DHT22;56411;52.964;10.540;2023-03-12T10:42:45;6.10;99.90
16102;DHT22;56411;52.964;10.540;2023-03-12T10:45:25;6.20;99.90
16102;DHT22;56411;52.964;10.540;2023-03-12T10:48:01;6.30;99.90
16102;DHT22;56411;52.964;10.540;2023-03-12T10:50:31;6.30;99.90
16102;DHT22;56411;52.964;10.540;2023-03-12T10:53:13;6.50;99.90
16102;DHT22;56411;52.964;10.540;2023-03-12T10:55:40;6.30;99.90
16102;DHT22;56411;52.964;10.540;2023-03-12T10:58:21;5.70;99.90
16102;DHT22;56411;52.964;10.540;2023-03-12T11:00:55;5.60;99.90
16102;DHT22;56411;52.964;10.540;2023-03-12T11:03:22;5.70;99.90
16102;DHT22;56411;52.964;10.540;2023-03-12T11:05:54;5.70;99.90
16102;DHT22;56411;52.964;10.540;2023-03-12T11:08:23;5.70;99.90
16102;DHT22;56411;52.964;10.540;2023-03-12T11:10:54;5.90;99.90
16102;DHT22;56411;52.964;10.540;2023-03-12T11:13:26;6.00;99.90
16102;DHT22;56411;52.964;10.540;2023-03-12T11:15:54;5.90;99.90
16102;DHT22;56411;52.964;10.540;2023-03-12T11:18:31;5.90;99.90
16102;DHT22;56411;52.964;10.540;2023-03-12T11:21:15;5.90;99.90
16102;DHT22;56411;52.964;10.540;2023-03-12T11:23:44;5.70;99.90
16102;DHT22;56411;52.964;10.540;2023-03-12T11:26:17;5.80;99.90
16102;DHT22;56411;52.964;10.540;2023-03-12T11:28:47;5.80;99.90
16102;DHT22;56411;52.964;10.540;2023-03-12T11:31:20;5.90;99.90
16102;DHT22;56411;52.964;10.540;2023-03-12T11:33:50;5.90;99.90
16102;DHT22;56411;52.964;10.540;2023-03-12T11:36:34;5.90;99.90
16102;DHT22;56411;52.964;10.540;2023-03-12T11:39:13;6.00;99.90
16102;DHT22;56411;52.964;10.540;2023-03-12T11:41:58;5.80;99.90
16102;DHT22;56411;52.964;10.540;2023-03-12T11:44:33;5.80;99.90
16102;DHT22;56411;52.964;10.540;2023-03-12T11:47:18;5.90;99.90
16102;DHT22;56411;52.964;10.540;2023-03-12T11:50:00;5.80;99.90
16102;DHT22;56411;52.964;10.540;2023-03-12T11:52:38;5.70;99.90
16102;DHT22;56411;52.964;10.540;2023-03-12T11:55:37;5.70;99.90
16102;DHT22;56411;52.964;10.540;2023-03-12T11:58:23;5.60;99.90
16102;DHT22;56411;52.964;10.540;2023-03-12T12:00:57;5.50;99.90
16102;DHT22;56411;52.964;10.540;2023-03-12T12:03:56;5.50;99.90
16102;DHT22;56411;52.964;10.540;2023-03-12T12:06:32;5.30;99.90
16102;DHT22;56411;52.964;10.540;2023-03-12T12:09:13;5.30;99.90
16102;DHT22;56411;52.964;10.540;2023-03-12T12:11:51;5.20;99.90
16102;DHT22;56411;52.964;10.540;2023-03-12T12:14:30;5.10;99.90
16102;DHT22;56411;52.964;10.540;2023-03-12T12:17:12;5.10;99.90
16102;DHT22;56411;52.964;10.540;2023-03-12T12:19:55;5.10;99.90
16102;DHT22;56411;52.964;10.540;2023-03-12T12:22:34;5.10;99.90
16102;DHT22;56411;52.964;10.540;2023-03-12T12:25:22;5.00;99.90
16102;DHT22;56411;52.964;10.540;2023-03-12T12:28:00;5.00;99.90
16102;DHT22;56411;52.964;10.540;2023-03-12T12:30:50;5.10;99.90
16102;DHT22;56411;52.964;10.540;2023-03-12T12:33:29;5.30;99.90
16102;DHT22;56411;52.964;10.540;2023-03-12T12:35:57;5.30;99.90
16102;DHT22;56411;52.964;10.540;2023-03-12T12:38:28;5.40;99.90
16102;DHT22;56411;52.964;10.540;2023-03-12T12:41:03;5.50;99.90
16102;DHT22;56411;52.964;10.540;2023-03-12T12:43:36;5.60;99.90
16102;DHT22;56411;52.964;10.540;2023-03-12T12:46:07;5.60;99.90
16102;DHT22;56411;52.964;10.540;2023-03-12T12:48:39;5.50;99.90
16102;DHT22;56411;52.964;10.540;2023-03-12T12:51:08;5.50;99.90
16102;DHT22;56411;52.964;10.540;2023-03-12T12:53:40;5.30;99.90
16102;DHT22;56411;52.964;10.540;2023-03-12T12:56:17;5.20;99.90
16102;DHT22;56411;52.964;10.540;2023-03-12T12:59:20;5.10;99.90
16102;DHT22;56411;52.964;10.540;2023-03-12T13:02:00;4.90;99.90
16102;DHT22;56411;52.964;10.540;2023-03-12T13:04:31;4.60;99.90
16102;DHT22;56411;52.964;10.540;2023-03-12T13:07:01;4.40;99.90
16102;DHT22;56411;52.964;10.540;2023-03-12T13:09:38;4.30;99.90
16102;DHT22;56411;52.964;10.540;2023-03-12T13:12:12;4.20;99.90
16102;DHT22;56411;52.964;10.540;2023-03-12T13:14:40;4.30;99.90
16102;DHT22;56411;52.964;10.540;2023-03-12T13:17:22;4.30;99.90
16102;DHT22;56411;52.964;10.540;2023-03-12T13:19:53;4.00;99.90
16102;DHT22;56411;52.964;10.540;2023-03-12T13:22:34;3.90;99.90
16102;DHT22;56411;52.964;10.540;2023-03-12T13:25:23;3.70;99.90
16102;DHT22;56411;52.964;10.540;2023-03-12T13:27:58;3.70;99.90
16102;DHT22;56411;52.964;10.540;2023-03-12T13:30:46;3.60;99.90
16102;DHT22;56411;52.964;10.540;2023-03-12T13:33:14;3.50;99.90
16102;DHT22;56411;52.964;10.540;2023-03-12T13:35:48;3.60;99.90
16102;DHT22;56411;52.964;10.540;2023-03-12T13:38:36;3.70;99.90
16102;DHT22;56411;52.964;10.540;2023-03-12T13:41:07;3.80;99.90
16102;DHT22;56411;52.964;10.540;2023-03-12T13:43:47;3.90;99.90
16102;DHT22;56411;52.964;10.540;2023-03-12T13:49:17;3.70;99.90
16102;DHT22;56411;52.964;10.540;2023-03-12T13:51:55;3.50;99.90
16102;DHT22;56411;52.964;10.540;2023-03-12T13:54:31;3.40;99.90
16102;DHT22;56411;52.964;10.540;2023-03-12T13:57:02;3.20;99.90
16102;DHT22;56411;52.964;10.540;2023-03-12T13:59:32;3.10;99.90
16102;DHT22;56411;52.964;10.540;2023-03-12T14:02:03;3.00;99.90
16102;DHT22;56411;52.964;10.540;2023-03-12T14:04:35;3.00;99.90
16102;DHT22;56411;52.964;10.540;2023-03-12T14:07:40;3.10;99.90
16102;DHT22;56411;52.964;10.540;2023-03-12T14:10:18;2.90;99.90
16102;DHT22;56411;52.964;10.540;2023-03-12T14:12:54;2.90;99.90
16102;DHT22;56411;52.964;10.540;2023-03-12T14:15:30;2.90;99.90
16102;DHT22;56411;52.964;10.540;2023-03-12T14:18:01;2.90;99.90
16102;DHT22;56411;52.964;10.540;2023-03-12T14:20:30;3.00;99.90
16102;DHT22;56411;52.964;10.540;2023-03-12T14:23:03;3.00;99.90
16102;DHT22;56411;52.964;10.540;2023-03-12T14:25:34;2.90;99.90
16102;DHT22;56411;52.964;10.540;2023-03-12T14:28:03;2.90;99.90
16102;DHT22;56411;52.964;10.540;2023-03-12T14:30:40;2.90;99.90
16102;DHT22;56411;52.964;10.540;2023-03-12T14:33:10;2.90;99.90
16102;DHT22;56411;52.964;10.540;2023-03-12T14:35:42;2.90;99.90
16102;DHT22;56411;52.964;10.540;2023-03-12T14:38:15;3.00;99.90
16102;DHT22;56411;52.964;10.540;2023-03-12T14:40:47;2.90;99.90
16102;DHT22;56411;52.964;10.540;2023-03-12T14:43:22;2.80;99.90
16102;DHT22;56411;52.964;10.540;2023-03-12T14:45:53;2.80;99.90
16102;DHT22;56411;52.964;10.540;2023-03-12T14:48:22;2.80;99.90
16102;DHT22;56411;52.964;10.540;2023-03-12T14:50:50;2.80;99.90
16102;DHT22;56411;52.964;10.540;2023-03-12T14:53:23;2.80;99.90
16102;DHT22;56411;52.964;10.540;2023-03-12T14:56:02;2.80;99.90
16102;DHT22;56411;52.964;10.540;2023-03-12T14:58:31;2.90;99.90
16102;DHT22;56411;52.964;10.540;2023-03-12T15:01:02;2.90;99.90
16102;DHT22;56411;52.964;10.540;2023-03-12T15:03:35;2.90;99.90
16102;DHT22;56411;52.964;10.540;2023-03-12T15:06:13;2.90;99.90
16102;DHT22;56411;52.964;10.540;2023-03-12T15:08:42;2.90;99.90
16102;DHT22;56411;52.964;10.540;2023-03-12T15:11:10;2.90;99.90
16102;DHT22;56411;52.964;10.540;2023-03-12T15:13:38;2.80;99.90
16102;DHT22;56411;52.964;10.540;2023-03-12T15:16:07;2.90;99.90
16102;DHT22;56411;52.964;10.540;2023-03-12T15:18:35;2.80;99.90
16102;DHT22;56411;52.964;10.540;2023-03-12T15:21:03;2.80;99.90
16102;DHT22;56411;52.964;10.540;2023-03-12T15:23:33;2.80;99.90
16102;DHT22;56411;52.964;10.540;2023-03-12T15:26:09;2.70;99.90
16102;DHT22;56411;52.964;10.540;2023-03-12T15:28:37;2.60;99.90
16102;DHT22;56411;52.964;10.540;2023-03-12T15:31:11;2.60;99.90
16102;DHT22;56411;52.964;10.540;2023-03-12T15:33:41;2.60;99.90
16102;DHT22;56411;52.964;10.540;2023-03-12T15:36:22;2.60;99.90
16102;DHT22;56411;52.964;10.540;2023-03-12T15:38:52;2.60;99.90
16102;DHT22;56411;52.964;10.540;2023-03-12T15:41:21;2.60;99.90
16102;DHT22;56411;52.964;10.540;2023-03-12T15:43:52;2.60;99.90
16102;DHT22;56411;52.964;10.540;2023-03-12T15:46:23;2.60;99.90
16102;DHT22;56411;52.964;10.540;2023-03-12T15:48:53;2.60;99.90